Honu'apo, HI

5:34 PM HST on March 28, 2017 (GMT -1000)
Discover Harbour - South #2 | | Change Station

Elev 1087 ft 19.03 °N, 155.63 °W | Updated 4 minutes ago

Mostly Cloudy
Mostly Cloudy
72.9 °F
Feels Like 73 °F
N
17.6
Wind Variable Wind from NE

Today
High -- | Low -- °F
--% Chance of Precip.
Yesterday
High -- | Low -- °F
Precip. -- in
Pressure 30.04 in
Visibility 10.0 miles
Clouds Few 2500 ft
Scattered Clouds 3000 ft
Mostly Cloudy 3800 ft
Heat Index 73 °F
Dew Point 66 °F
Humidity 80%
Rainfall 0.00 in
Snow Depth Not available.
6:19 AM 6:35 PM
New Moon, 1% visible
METAR PHTO 290253Z 11009KT 10SM FEW025 SCT030 BKN038 25/19 A3005 RMK AO2 SLP173 T02500194 55008
Pressure 30.04 in
Visibility 10.0 miles
Clouds Few 2500 ft
Scattered Clouds 3000 ft
Mostly Cloudy 3800 ft
Heat Index 73 °F
Dew Point 66 °F
Humidity 80%
Rainfall 0.00 in
Snow Depth Not available.
6:19 AM 6:35 PM
New Moon, 1% visible
METAR PHTO 290253Z 11009KT 10SM FEW025 SCT030 BKN038 25/19 A3005 RMK AO2 SLP173 T02500194 55008

Get Severe Weather Alerts

Thanks for signing up!

Be on the lookout for a verification email in your inbox.

You'll start receiving the daily forecast at 8 AM.

×

10-Day Weather Forecast

Almanac

Astronomy

Mar. 28, 2017 Rise Set
Actual Time
Civil Twilight
Nautical Twilight
Astronomical Twilight
Moon
Length of Visible Light
Length of Day
Tomorrow will be .
, % of the Moon is Illuminated

Today's Extremes

State Highs State Lows

Community

WunderPhotos

Upload Photos

1,962,540 photos uploaded!

WunderBlog® & News

Nearby

Air Quality

  Air Quality AQ Index Pollutant
Not available.

Snow Depth

Station Depth Elevation

Earthquake Activity

City Distance Mag. Time & Date
Minimum magnitude displayed is 2.5.

Earthquake Activity

City Distance Mag. Time & Date
Minimum magnitude displayed is 2.5.

Coastal Water Temperatures

Place Temperature

Stations

Nearby Weather Stations

Station Location Temp. Windchill Dew Point Humidity Wind Precip. Elev Updated Type
                   

Watches & Warnings

There are currently no watches in effect.